Time;durP1;ratioP1;P1;durP2;ratioP2;P2;SDS_P1;SDS_P2;PMS_P1;PMS_P2;Temp;Humidity;BMP_temperature;BMP_pressure;BME280_temperature;BME280_humidity;BME280_pressure;Samples;Min_cycle;Max_cycle;Signal;HPM_P1;HPM_P2
2024/01/06 00:01:02;;;;;;;0.30;0.20;;;;;;;4.69;98.07;99047.94;5043818;28;21080;-51
2024/01/06 00:03:29;;;;;;;0.30;0.20;;;;;;;4.82;98.37;99050.25;5051795;28;20478;-51
2024/01/06 00:05:56;;;;;;;0.30;0.13;;;;;;;4.80;98.39;99050.28;5054370;28;20537;-51
2024/01/06 00:08:22;;;;;;;0.30;0.20;;;;;;;4.70;98.76;99052.28;5047822;28;20455;-51
2024/01/06 00:10:49;;;;;;;0.30;0.20;;;;;;;4.86;99.15;99054.53;5045032;28;20497;-52
2024/01/06 00:13:15;;;;;;;0.30;0.20;;;;;;;4.75;99.12;99050.38;5053961;28;20502;-52
2024/01/06 00:15:42;;;;;;;0.30;0.20;;;;;;;4.97;99.52;99041.94;5042967;28;20455;-52
2024/01/06 00:18:08;;;;;;;0.30;0.10;;;;;;;5.08;99.33;99053.06;5051570;28;20454;-53
2024/01/06 00:20:35;;;;;;;0.30;0.20;;;;;;;5.05;99.05;99053.13;5054123;28;20517;-53
2024/01/06 00:23:01;;;;;;;0.30;0.20;;;;;;;5.10;99.61;99056.53;5040412;28;20996;-54
2024/01/06 00:25:28;;;;;;;0.30;0.10;;;;;;;5.05;99.17;99056.63;5053966;28;20451;-53
2024/01/06 00:27:54;;;;;;;0.30;0.20;;;;;;;5.02;99.74;99055.84;5052446;28;20896;-53
2024/01/06 00:30:21;;;;;;;0.30;0.10;;;;;;;5.14;100.00;99052.91;5042403;28;20815;-53
2024/01/06 00:32:47;;;;;;;0.30;0.20;;;;;;;5.19;100.00;99055.41;5047044;28;20558;-53
2024/01/06 00:35:14;;;;;;;0.30;0.10;;;;;;;5.31;99.43;99058.56;5046961;28;20443;-53
2024/01/06 00:37:40;;;;;;;0.30;0.20;;;;;;;5.35;99.12;99054.97;5053179;28;20486;-53
2024/01/06 00:40:07;;;;;;;0.30;0.10;;;;;;;5.48;99.33;99059.88;5053484;28;20496;-53
2024/01/06 00:42:33;;;;;;;0.30;0.17;;;;;;;5.39;99.18;99050.47;5040051;28;20908;-53
2024/01/06 00:45:00;;;;;;;0.30;0.10;;;;;;;5.57;99.95;99060.50;5053825;28;20443;-54
2024/01/06 00:47:26;;;;;;;0.30;0.13;;;;;;;5.52;99.28;99059.75;5053386;28;20451;-54
2024/01/06 00:49:53;;;;;;;0.30;0.20;;;;;;;5.50;99.23;99053.69;5042513;28;20937;-53
2024/01/06 00:52:19;;;;;;;0.30;0.13;;;;;;;5.59;99.65;99063.06;5051268;28;20510;-54
2024/01/06 00:54:47;;;;;;;0.30;0.10;;;;;;;5.59;99.57;99060.44;5053339;28;20455;-53
2024/01/06 00:57:13;;;;;;;0.30;0.20;;;;;;;5.67;99.77;99061.09;5053121;28;20454;-53
2024/01/06 00:59:40;;;;;;;0.30;0.10;;;;;;;5.76;99.12;99059.97;5052890;28;20510;-53
2024/01/06 01:02:06;;;;;;;0.30;0.20;;;;;;;5.83;99.40;99066.78;5039820;28;20559;-52
2024/01/06 01:04:33;;;;;;;0.30;0.10;;;;;;;5.75;99.59;99063.50;5053270;28;20453;-53
2024/01/06 01:06:59;;;;;;;0.30;0.20;;;;;;;5.75;99.68;99064.34;5053150;28;20451;-53
2024/01/06 01:09:25;;;;;;;0.30;0.20;;;;;;;5.93;99.27;99074.44;5045089;28;20539;-53
2024/01/06 01:11:52;;;;;;;0.30;0.20;;;;;;;6.07;98.75;99071.38;5052720;28;20516;-53
2024/01/06 01:14:18;;;;;;;0.30;0.17;;;;;;;6.18;97.64;99071.94;5052817;28;20455;-53
2024/01/06 01:16:45;;;;;;;0.30;0.10;;;;;;;6.17;98.68;99075.47;5046621;28;20486;-53
2024/01/06 01:19:11;;;;;;;0.30;0.20;;;;;;;6.02;98.08;99075.91;5052970;28;20823;-53
2024/01/06 01:21:38;;;;;;;0.30;0.20;;;;;;;6.03;98.93;99084.69;5047342;28;20861;-53
2024/01/06 01:24:04;;;;;;;0.30;0.20;;;;;;;6.11;97.71;99077.41;5045023;28;20497;-54
2024/01/06 01:26:31;;;;;;;0.30;0.20;;;;;;;5.98;97.53;99078.69;5052193;28;20537;-54
2024/01/06 01:28:57;;;;;;;0.30;0.20;;;;;;;6.15;98.95;99085.19;5052617;28;20447;-54
2024/01/06 01:31:24;;;;;;;0.30;0.17;;;;;;;6.33;97.89;99085.56;5039018;28;20537;-54
2024/01/06 01:33:51;;;;;;;0.30;0.20;;;;;;;6.29;96.97;99086.53;5052571;28;20501;-54
2024/01/06 01:36:18;;;;;;;0.30;0.10;;;;;;;6.32;97.28;99092.59;5052217;28;20477;-54
2024/01/06 01:38:44;;;;;;;0.30;0.20;;;;;;;6.43;96.89;99092.25;5052120;28;20952;-53
2024/01/06 01:41:11;;;;;;;0.30;0.20;;;;;;;6.26;97.17;99086.63;5052194;28;20526;-54
2024/01/06 01:43:38;;;;;;;0.30;0.10;;;;;;;6.34;98.29;99089.91;5039826;28;20882;-54
2024/01/06 01:46:04;;;;;;;0.30;0.20;;;;;;;6.35;97.70;99099.56;5038883;28;21010;-54
2024/01/06 01:48:34;;;;;;;0.30;0.13;;;;;;;6.45;97.78;99103.66;5038758;28;20941;-54
2024/01/06 01:51:01;;;;;;;0.30;0.20;;;;;;;6.42;97.59;99109.00;5052604;28;20510;-54
2024/01/06 01:53:28;;;;;;;0.30;0.20;;;;;;;6.42;97.06;99098.44;5051222;28;20557;-54
2024/01/06 01:55:54;;;;;;;0.30;0.20;;;;;;;6.35;97.72;99104.84;5051153;28;20454;-54
2024/01/06 01:58:21;;;;;;;0.30;0.20;;;;;;;6.42;97.26;99101.09;5046933;28;20892;-54
2024/01/06 02:00:47;;;;;;;0.30;0.20;;;;;;;6.48;97.80;99106.19;5051256;28;20490;-54
2024/01/06 02:03:15;;;;;;;0.30;0.20;;;;;;;6.59;96.47;99109.38;5050189;28;20497;-53
2024/01/06 02:05:41;;;;;;;0.30;0.20;;;;;;;6.56;97.00;99112.06;5045595;28;20451;-54
2024/01/06 02:08:08;;;;;;;0.30;0.20;;;;;;;6.50;96.55;99107.88;5051057;28;20482;-54
2024/01/06 02:10:35;;;;;;;0.30;0.10;;;;;;;6.60;97.71;99108.44;5043266;28;20816;-53
2024/01/06 02:13:11;;;;;;;0.30;0.20;;;;;;;6.59;96.96;99106.72;5045639;28;20466;-54
2024/01/06 02:15:38;;;;;;;0.30;0.20;;;;;;;6.51;97.24;99106.94;5051055;28;20454;-53
2024/01/06 02:18:05;;;;;;;0.30;0.20;;;;;;;6.53;97.49;99112.19;5037513;28;20502;-53
2024/01/06 02:20:32;;;;;;;0.30;0.13;;;;;;;6.52;97.72;99110.44;5050515;28;20489;-54
2024/01/06 02:23:00;;;;;;;0.30;0.20;;;;;;;6.49;98.53;99121.13;5050417;28;20987;-53
2024/01/06 02:25:27;;;;;;;0.30;0.20;;;;;;;6.57;97.81;99121.72;5051001;28;20963;-54
2024/01/06 02:27:53;;;;;;;0.30;0.20;;;;;;;6.50;98.67;99128.13;5050910;28;20460;-53
2024/01/06 02:30:20;;;;;;;0.30;0.20;;;;;;;6.49;97.70;99129.03;5041171;28;20452;-54
2024/01/06 02:32:47;;;;;;;0.30;0.20;;;;;;;6.50;97.52;99128.97;5047321;28;20466;-54
2024/01/06 02:35:13;;;;;;;0.30;0.20;;;;;;;6.47;98.25;99128.22;5050686;28;20446;-53
2024/01/06 02:37:40;;;;;;;0.30;0.20;;;;;;;6.41;99.01;99131.91;5046154;28;20495;-53
2024/01/06 02:40:07;;;;;;;0.30;0.20;;;;;;;6.46;99.42;99137.91;5041751;28;21022;-53
2024/01/06 02:42:33;;;;;;;0.30;0.20;;;;;;;6.48;98.53;99124.66;5050591;28;20502;-53
2024/01/06 02:45:00;;;;;;;0.30;0.20;;;;;;;6.62;97.93;99122.47;5050698;28;20458;-53
2024/01/06 02:47:26;;;;;;;0.30;0.20;;;;;;;6.65;97.71;99130.28;5044371;28;20546;-54
2024/01/06 02:49:53;;;;;;;0.30;0.20;;;;;;;6.94;96.96;99128.47;5042100;28;20530;-53
2024/01/06 02:52:19;;;;;;;0.30;0.20;;;;;;;6.92;96.05;99140.88;5024624;22;1145807;-54
2024/01/06 02:54:47;;;;;;;0.30;0.20;;;;;;;6.90;95.89;99140.94;5035848;28;20256;-54
2024/01/06 02:57:15;;;;;;;0.30;0.20;;;;;;;6.93;96.55;99148.75;5035477;28;20555;-54
2024/01/06 02:59:41;;;;;;;0.30;0.20;;;;;;;6.85;96.87;99156.03;5035639;28;20517;-54
2024/01/06 03:02:07;;;;;;;0.30;0.20;;;;;;;6.77;97.45;99150.16;5038248;28;20500;-54
2024/01/06 03:04:34;;;;;;;0.30;0.20;;;;;;;6.68;97.18;99140.75;5055276;28;20541;-54
2024/01/06 03:07:00;;;;;;;0.30;0.20;;;;;;;6.69;97.45;99144.25;5055903;28;20455;-54
2024/01/06 03:09:27;;;;;;;0.30;0.20;;;;;;;6.72;98.15;99141.53;5055795;28;20447;-54
2024/01/06 03:11:53;;;;;;;0.30;0.10;;;;;;;6.66;98.13;99146.97;5049700;28;20940;-54
2024/01/06 03:14:20;;;;;;;0.30;0.20;;;;;;;6.69;98.36;99146.88;5035768;28;20885;-54
2024/01/06 03:16:46;;;;;;;0.30;0.20;;;;;;;6.72;98.30;99147.69;5041789;28;20478;-54
2024/01/06 03:19:13;;;;;;;0.30;0.20;;;;;;;6.67;98.38;99154.00;5055419;28;20468;-54
2024/01/06 03:21:39;;;;;;;0.30;0.10;;;;;;;6.67;97.77;99152.22;5049595;28;20498;-55
2024/01/06 03:24:07;;;;;;;0.30;0.20;;;;;;;6.66;98.52;99155.78;5048021;28;20494;-55
2024/01/06 03:26:33;;;;;;;0.30;0.20;;;;;;;6.61;99.05;99152.41;5055609;28;20454;-55
2024/01/06 03:29:02;;;;;;;0.30;0.20;;;;;;;6.57;98.92;99156.03;5056199;28;20545;-54
2024/01/06 03:31:29;;;;;;;0.30;0.20;;;;;;;6.44;98.92;99155.59;5056393;28;20439;-55
2024/01/06 03:33:56;;;;;;;0.30;0.10;;;;;;;6.55;98.66;99163.16;5056753;28;20478;-55
2024/01/06 03:36:23;;;;;;;0.30;0.20;;;;;;;6.38;98.63;99161.03;5057674;28;20529;-55
2024/01/06 03:38:49;;;;;;;0.30;0.10;;;;;;;6.47;99.41;99165.19;5059355;28;20478;-55
2024/01/06 03:41:16;;;;;;;0.30;0.20;;;;;;;6.35;98.05;99169.03;5048844;28;21334;-55
2024/01/06 03:43:42;;;;;;;0.30;0.20;;;;;;;6.42;99.09;99175.00;5039232;28;20477;-55
2024/01/06 03:46:08;;;;;;;0.30;0.20;;;;;;;6.40;99.43;99174.16;5038654;28;20895;-55
2024/01/06 03:48:35;;;;;;;0.30;0.20;;;;;;;6.35;99.35;99176.97;5050035;28;20439;-55
2024/01/06 03:51:02;;;;;;;0.30;0.10;;;;;;;6.43;99.44;99182.00;5055014;28;20443;-55
2024/01/06 03:53:29;;;;;;;0.30;0.20;;;;;;;6.34;98.94;99166.44;5053765;28;20466;-55
2024/01/06 03:55:55;;;;;;;0.30;0.20;;;;;;;6.37;99.05;99174.28;5035585;28;20888;-55
2024/01/06 03:58:22;;;;;;;0.30;0.13;;;;;;;6.42;99.04;99164.44;5042215;28;20815;-55
2024/01/06 04:00:48;;;;;;;0.30;0.20;;;;;;;6.52;98.27;99160.59;5054792;28;20570;-55
2024/01/06 04:03:15;;;;;;;0.30;0.20;;;;;;;6.54;98.65;99170.22;5054386;28;20478;-55
2024/01/06 04:05:41;;;;;;;0.30;0.20;;;;;;;6.55;97.73;99179.00;5047134;28;20448;-55
2024/01/06 04:08:08;;;;;;;0.30;0.20;;;;;;;6.67;98.29;99173.34;5036200;28;20501;-55
2024/01/06 04:10:34;;;;;;;0.30;0.20;;;;;;;6.82;97.62;99167.56;5045925;28;20482;-54
2024/01/06 04:13:01;;;;;;;0.30;0.10;;;;;;;6.80;96.98;99181.75;5049516;28;20474;-54
2024/01/06 04:15:28;;;;;;;0.30;0.10;;;;;;;6.84;97.14;99180.72;5050363;28;20457;-55
2024/01/06 04:17:54;;;;;;;0.30;0.20;;;;;;;6.83;97.04;99179.88;5047473;28;20457;-55
2024/01/06 04:20:21;;;;;;;0.30;0.20;;;;;;;6.94;97.35;99184.81;5034472;28;20490;-55
2024/01/06 04:22:47;;;;;;;0.30;0.10;;;;;;;7.02;96.73;99182.81;5036188;28;20870;-55
2024/01/06 04:25:14;;;;;;;0.30;0.20;;;;;;;7.00;96.58;99182.00;5054184;28;20483;-55
2024/01/06 04:27:40;;;;;;;0.30;0.20;;;;;;;7.04;95.91;99185.41;5051955;28;20956;-55
2024/01/06 04:30:07;;;;;;;0.30;0.20;;;;;;;7.05;96.47;99182.69;5053839;28;20446;-55
2024/01/06 04:32:34;;;;;;;0.30;0.20;;;;;;;7.07;95.84;99183.50;5051610;28;20467;-55
2024/01/06 04:35:01;;;;;;;0.30;0.20;;;;;;;7.15;96.27;99178.00;5045472;28;20451;-55
2024/01/06 04:37:27;;;;;;;0.30;0.20;;;;;;;7.08;95.88;99177.31;5052622;28;20462;-54
2024/01/06 04:39:54;;;;;;;0.37;0.30;;;;;;;7.08;95.48;99173.81;5049535;28;20553;-55
2024/01/06 04:42:22;;;;;;;0.30;0.20;;;;;;;7.16;95.16;99165.66;5040052;28;20498;-54
2024/01/06 04:44:50;;;;;;;0.30;0.20;;;;;;;7.17;95.72;99172.66;5042612;28;20448;-55
2024/01/06 04:47:17;;;;;;;0.30;0.20;;;;;;;7.19;95.32;99169.03;5033780;28;20448;-55
2024/01/06 04:49:44;;;;;;;0.30;0.20;;;;;;;7.19;95.78;99176.97;5033945;28;20479;-55
2024/01/06 04:52:11;;;;;;;0.30;0.20;;;;;;;7.21;95.75;99174.28;5046113;28;20472;-55
2024/01/06 04:54:37;;;;;;;0.30;0.20;;;;;;;7.23;95.86;99191.81;5037216;28;21002;-55
2024/01/06 04:57:04;;;;;;;0.30;0.20;;;;;;;7.21;95.60;99188.34;5033285;28;20483;-56
2024/01/06 04:59:31;;;;;;;0.30;0.20;;;;;;;7.20;96.00;99189.28;5052641;28;20821;-55
2024/01/06 05:01:58;;;;;;;0.30;0.20;;;;;;;7.22;95.85;99197.13;5048732;28;21007;-55
2024/01/06 05:04:24;;;;;;;0.30;0.10;;;;;;;7.27;96.37;99187.31;5033991;28;20906;-54
2024/01/06 05:06:51;;;;;;;0.30;0.20;;;;;;;7.22;96.59;99192.72;5039796;28;20459;-54
2024/01/06 05:09:18;;;;;;;0.30;0.20;;;;;;;7.11;96.52;99186.91;5052767;28;20958;-55
2024/01/06 05:11:45;;;;;;;0.30;0.20;;;;;;;7.07;95.89;99188.81;5052848;28;20843;-55
2024/01/06 05:14:11;;;;;;;0.30;0.20;;;;;;;7.08;96.46;99190.53;5052537;28;20477;-55
2024/01/06 05:16:38;;;;;;;0.30;0.20;;;;;;;7.18;96.29;99204.31;5048157;28;20451;-55
2024/01/06 05:19:04;;;;;;;0.30;0.20;;;;;;;7.15;95.82;99193.00;5033126;28;20452;-55
2024/01/06 05:21:31;;;;;;;0.30;0.20;;;;;;;7.10;96.04;99201.03;5045755;28;20491;-55
2024/01/06 05:23:59;;;;;;;0.30;0.20;;;;;;;7.07;96.38;99196.72;5044828;28;20529;-55
2024/01/06 05:26:25;;;;;;;0.30;0.20;;;;;;;7.09;95.90;99202.81;5052719;28;21046;-54
2024/01/06 05:28:52;;;;;;;0.30;0.20;;;;;;;7.16;96.44;99202.63;5038102;28;20472;-54
2024/01/06 05:31:18;;;;;;;0.30;0.20;;;;;;;7.13;96.97;99199.19;5051371;28;20544;-54
2024/01/06 05:33:45;;;;;;;0.30;0.20;;;;;;;7.11;96.94;99200.13;5052753;28;20904;-55
2024/01/06 05:36:12;;;;;;;0.30;0.20;;;;;;;7.20;95.95;99198.97;5052406;28;20455;-54
2024/01/06 05:38:38;;;;;;;0.30;0.20;;;;;;;7.10;96.32;99204.53;5052516;28;20500;-54
2024/01/06 05:41:04;;;;;;;0.30;0.20;;;;;;;7.14;95.89;99200.06;5033480;28;20452;-55
2024/01/06 05:43:31;;;;;;;0.30;0.20;;;;;;;7.19;96.45;99206.03;5032581;28;20476;-55
2024/01/06 05:45:57;;;;;;;0.30;0.20;;;;;;;7.17;96.00;99207.88;5051187;28;20455;-55
2024/01/06 05:48:24;;;;;;;0.30;0.20;;;;;;;7.05;96.74;99202.97;5051571;28;20944;-55
2024/01/06 05:50:51;;;;;;;0.30;0.20;;;;;;;7.11;97.13;99211.56;5046001;28;20543;-55
2024/01/06 05:53:18;;;;;;;0.30;0.20;;;;;;;7.04;96.37;99206.53;5044473;28;21077;-55
2024/01/06 05:55:44;;;;;;;0.30;0.20;;;;;;;6.97;96.92;99207.63;5045678;28;20464;-55
2024/01/06 05:58:11;;;;;;;0.30;0.20;;;;;;;6.99;97.33;99206.69;5047173;28;20454;-56
2024/01/06 06:00:38;;;;;;;0.30;0.20;;;;;;;6.90;96.79;99200.81;5051337;28;20453;-55
2024/01/06 06:03:05;;;;;;;0.30;0.20;;;;;;;6.94;96.70;99213.88;5041491;28;20518;-55
2024/01/06 06:05:31;;;;;;;0.30;0.20;;;;;;;6.94;97.05;99213.88;5032408;28;20443;-55
2024/01/06 06:07:58;;;;;;;0.30;0.20;;;;;;;6.86;97.02;99210.63;5045114;28;20443;-55
2024/01/06 06:10:30;;;;;;;0.30;0.20;;;;;;;6.80;98.14;99210.78;5052334;28;20894;-55
2024/01/06 06:12:56;;;;;;;0.30;0.20;;;;;;;6.92;98.24;99228.06;5052018;28;20463;-55
2024/01/06 06:15:23;;;;;;;0.30;0.20;;;;;;;6.86;97.78;99221.19;5044324;28;20513;-55
2024/01/06 06:17:49;;;;;;;0.30;0.20;;;;;;;7.00;98.49;99226.03;5031928;28;20446;-55
2024/01/06 06:20:16;;;;;;;0.30;0.20;;;;;;;6.96;98.25;99229.69;5050786;28;20459;-55
2024/01/06 06:22:42;;;;;;;0.30;0.20;;;;;;;7.01;98.89;99230.41;5046845;28;20497;-55
2024/01/06 06:25:09;;;;;;;0.30;0.20;;;;;;;7.06;98.25;99239.91;5039830;28;20454;-55
2024/01/06 06:27:36;;;;;;;0.30;0.20;;;;;;;7.07;98.29;99240.78;5049251;28;20466;-54
2024/01/06 06:30:04;;;;;;;0.30;0.20;;;;;;;7.00;98.48;99245.41;5051631;28;20932;-54
2024/01/06 06:32:30;;;;;;;0.30;0.20;;;;;;;6.98;98.18;99252.47;5042402;28;20471;-54
2024/01/06 06:34:57;;;;;;;0.30;0.20;;;;;;;6.81;98.64;99253.00;5050365;28;21029;-54
2024/01/06 06:37:23;;;;;;;0.30;0.20;;;;;;;7.02;98.18;99269.13;5049786;28;20485;-54
2024/01/06 06:39:50;;;;;;;0.30;0.20;;;;;;;7.06;98.50;99260.19;5032508;28;21043;-54
2024/01/06 06:42:16;;;;;;;0.30;0.20;;;;;;;7.13;97.43;99265.25;5036255;28;21051;-54
2024/01/06 06:44:43;;;;;;;0.30;0.20;;;;;;;7.11;98.49;99269.69;5051617;28;20447;-55
2024/01/06 06:47:09;;;;;;;0.30;0.10;;;;;;;6.95;99.11;99263.16;5043265;28;20467;-54
2024/01/06 06:49:36;;;;;;;0.30;0.17;;;;;;;6.91;98.60;99265.94;5039708;28;20443;-54
2024/01/06 06:52:03;;;;;;;0.30;0.20;;;;;;;6.90;98.47;99270.38;5034148;28;20447;-56
2024/01/06 06:54:30;;;;;;;0.30;0.10;;;;;;;6.88;98.99;99276.59;5051346;28;20496;-55
2024/01/06 06:56:57;;;;;;;0.30;0.20;;;;;;;7.05;98.19;99274.31;5048194;28;20458;-55
2024/01/06 06:59:24;;;;;;;0.30;0.20;;;;;;;7.05;98.90;99276.94;5051605;28;20563;-55
2024/01/06 07:01:50;;;;;;;0.30;0.20;;;;;;;6.89;99.51;99287.13;5049472;28;20524;-55
2024/01/06 07:04:17;;;;;;;0.30;0.20;;;;;;;6.91;99.29;99284.44;5043920;28;20455;-54
2024/01/06 07:06:43;;;;;;;0.30;0.20;;;;;;;6.82;99.51;99289.06;5034043;28;20820;-55
2024/01/06 07:09:10;;;;;;;0.30;0.20;;;;;;;6.82;99.29;99294.34;5041422;28;20455;-54
2024/01/06 07:11:36;;;;;;;0.30;0.20;;;;;;;6.85;99.34;99298.66;5048369;28;20447;-54
2024/01/06 07:14:02;;;;;;;0.30;0.20;;;;;;;6.71;99.36;99301.72;5050719;28;20470;-55
2024/01/06 07:16:29;;;;;;;0.30;0.20;;;;;;;6.70;100.00;99297.34;5045994;28;20546;-55
2024/01/06 07:18:55;;;;;;;0.30;0.20;;;;;;;6.76;99.21;99301.59;5043352;28;20455;-55
2024/01/06 07:21:23;;;;;;;0.30;0.20;;;;;;;6.66;99.71;99303.63;5043100;28;20456;-54
2024/01/06 07:23:49;;;;;;;0.30;0.20;;;;;;;6.73;99.94;99309.63;5041205;28;20558;-53
2024/01/06 07:26:16;;;;;;;0.30;0.20;;;;;;;6.69;99.43;99310.59;5048324;28;20455;-54
2024/01/06 07:28:42;;;;;;;0.30;0.10;;;;;;;6.63;100.00;99319.56;5044351;28;20454;-55
2024/01/06 07:31:09;;;;;;;0.30;0.20;;;;;;;6.65;100.00;99312.47;5051754;28;20457;-56
2024/01/06 07:33:35;;;;;;;0.30;0.20;;;;;;;6.57;99.65;99319.72;5051965;28;20525;-55
2024/01/06 07:36:02;;;;;;;0.30;0.10;;;;;;;6.71;100.00;99322.84;5051621;28;20461;-55
2024/01/06 07:38:30;;;;;;;0.30;0.20;;;;;;;6.74;100.00;99328.06;5054470;28;20482;-55
2024/01/06 07:40:57;;;;;;;0.30;0.10;;;;;;;6.80;100.00;99333.16;5055145;28;20485;-54
2024/01/06 07:43:24;;;;;;;0.30;0.20;;;;;;;6.90;100.00;99333.75;5054783;28;20582;-55
2024/01/06 07:45:50;;;;;;;0.30;0.20;;;;;;;6.87;99.49;99327.72;5036522;28;20546;-55
2024/01/06 07:48:17;;;;;;;0.30;0.20;;;;;;;6.92;99.83;99337.22;5047236;28;20455;-55
2024/01/06 07:50:45;;;;;;;1.13;1.03;;;;;;;7.01;100.00;99344.03;5049449;28;20463;-55
2024/01/06 07:53:13;;;;;;;0.30;0.20;;;;;;;7.07;99.55;99344.69;5034896;28;20554;-55
2024/01/06 07:55:40;;;;;;;0.30;0.20;;;;;;;6.97;99.78;99352.91;5054093;28;20520;-55
2024/01/06 07:58:07;;;;;;;0.30;0.17;;;;;;;6.92;100.00;99357.47;5055493;28;20489;-55
2024/01/06 08:00:33;;;;;;;0.30;0.20;;;;;;;6.95;100.00;99357.38;5054910;28;20542;-55
2024/01/06 08:03:00;;;;;;;0.30;0.20;;;;;;;6.90;100.00;99362.81;5042006;28;20530;-55
2024/01/06 08:05:26;;;;;;;0.30;0.20;;;;;;;6.97;100.00;99367.00;5054596;28;20474;-55
2024/01/06 08:07:54;;;;;;;0.30;0.20;;;;;;;6.92;100.00;99362.78;5055283;28;20461;-55
2024/01/06 08:10:20;;;;;;;0.30;0.20;;;;;;;7.00;100.00;99363.44;5041795;28;20541;-56
2024/01/06 08:12:48;;;;;;;0.30;0.20;;;;;;;6.91;100.00;99364.53;5041581;28;20558;-54
2024/01/06 08:15:14;;;;;;;0.30;0.20;;;;;;;6.97;100.00;99363.50;5040859;28;20450;-54
2024/01/06 08:17:41;;;;;;;0.30;0.20;;;;;;;7.03;100.00;99365.97;5040953;28;20828;-54
2024/01/06 08:20:08;;;;;;;0.30;0.20;;;;;;;6.97;100.00;99368.78;5054386;28;20451;-54
2024/01/06 08:22:34;;;;;;;0.30;0.20;;;;;;;7.01;100.00;99375.72;5040848;28;20524;-53
2024/01/06 08:25:02;;;;;;;0.30;0.20;;;;;;;6.95;100.00;99374.09;5054236;28;20952;-54
2024/01/06 08:27:28;;;;;;;0.30;0.20;;;;;;;7.05;100.00;99380.88;5054137;28;20504;-54
2024/01/06 08:29:56;;;;;;;0.30;0.10;;;;;;;7.00;100.00;99381.91;5046935;28;20452;-54
2024/01/06 08:32:22;;;;;;;0.30;0.20;;;;;;;7.04;100.00;99388.84;5048101;28;20839;-53
2024/01/06 08:34:49;;;;;;;0.30;0.20;;;;;;;7.01;100.00;99386.28;5054087;28;20439;-54
2024/01/06 08:37:15;;;;;;;0.30;0.20;;;;;;;7.05;100.00;99390.56;5054103;28;20469;-54
2024/01/06 08:39:42;;;;;;;0.30;0.20;;;;;;;7.16;100.00;99396.41;5054022;28;20497;-53
2024/01/06 08:42:08;;;;;;;0.30;0.20;;;;;;;7.16;100.00;99399.06;5040592;28;20488;-54
2024/01/06 08:44:35;;;;;;;0.30;0.20;;;;;;;7.17;100.00;99394.63;5054308;28;20525;-54
2024/01/06 08:47:02;;;;;;;0.30;0.20;;;;;;;7.22;100.00;99401.50;5052758;28;21006;-54
2024/01/06 08:49:29;;;;;;;0.30;0.20;;;;;;;7.19;100.00;99406.88;5040545;28;20451;-53
2024/01/06 08:51:56;;;;;;;0.30;0.17;;;;;;;7.22;100.00;99409.44;5052043;28;20459;-54
2024/01/06 08:54:22;;;;;;;0.30;0.20;;;;;;;7.38;100.00;99407.19;5051033;22;20507;-54
2024/01/06 08:56:49;;;;;;;0.30;0.20;;;;;;;7.27;100.00;99407.53;5034548;28;20530;-53
2024/01/06 08:59:15;;;;;;;0.30;0.20;;;;;;;7.37;100.00;99408.13;5034333;28;20555;-54
2024/01/06 09:01:42;;;;;;;0.30;0.20;;;;;;;7.61;100.00;99419.75;5034052;28;20463;-54
2024/01/06 09:04:11;;;;;;;0.30;0.20;;;;;;;7.46;100.00;99413.13;5041998;28;20476;-54
2024/01/06 09:06:38;;;;;;;0.30;0.20;;;;;;;7.52;100.00;99410.28;5051699;28;20457;-54
2024/01/06 09:09:05;;;;;;;0.30;0.20;;;;;;;7.60;100.00;99423.28;5057935;28;20495;-54
2024/01/06 09:11:32;;;;;;;0.30;0.20;;;;;;;7.57;100.00;99418.97;5041270;28;20551;-53
2024/01/06 09:13:59;;;;;;;0.30;0.20;;;;;;;7.53;100.00;99427.03;5054298;28;20558;-53
2024/01/06 09:16:25;;;;;;;0.30;0.20;;;;;;;7.62;100.00;99424.09;5054442;28;20541;-53
2024/01/06 09:18:52;;;;;;;0.30;0.20;;;;;;;7.59;100.00;99437.44;5045171;28;20539;-54
2024/01/06 09:21:18;;;;;;;0.30;0.20;;;;;;;7.73;100.00;99427.31;5050729;28;20477;-53
2024/01/06 09:23:45;;;;;;;0.30;0.20;;;;;;;7.72;100.00;99430.84;5054561;28;20506;-54
2024/01/06 09:26:11;;;;;;;0.30;0.20;;;;;;;7.71;100.00;99435.28;5041304;28;20455;-54
2024/01/06 09:28:39;;;;;;;0.30;0.17;;;;;;;7.73;99.82;99435.22;5054121;28;20451;-54
2024/01/06 09:31:05;;;;;;;0.30;0.13;;;;;;;7.69;99.99;99441.53;5040277;28;20939;-54
2024/01/06 09:33:33;;;;;;;0.30;0.20;;;;;;;7.70;100.00;99441.50;5054374;28;20558;-53
2024/01/06 09:36:01;;;;;;;0.30;0.20;;;;;;;7.72;100.00;99447.59;5054060;28;20482;-54
2024/01/06 09:38:28;;;;;;;0.30;0.20;;;;;;;7.79;100.00;99442.09;5054343;28;20991;-54
2024/01/06 09:40:56;;;;;;;0.30;0.20;;;;;;;7.76;100.00;99448.34;5054207;28;20586;-54
2024/01/06 09:43:22;;;;;;;0.30;0.20;;;;;;;7.79;100.00;99448.25;5043923;28;20523;-54
2024/01/06 09:46:05;;;;;;;0.30;0.20;;;;;;;7.78;100.00;99457.09;5051405;28;20931;-53
2024/01/06 09:48:39;;;;;;;0.30;0.20;;;;;;;7.80;100.00;99454.41;5053818;28;20927;-54
2024/01/06 09:51:10;;;;;;;0.30;0.20;;;;;;;7.80;100.00;99457.91;5046522;28;20448;-54
2024/01/06 09:53:47;;;;;;;0.30;0.20;;;;;;;7.85;100.00;99455.16;5048577;28;20532;-54
2024/01/06 09:56:16;;;;;;;0.30;0.20;;;;;;;7.89;100.00;99464.72;5053994;28;20454;-54
2024/01/06 09:58:44;;;;;;;0.30;0.20;;;;;;;7.89;100.00;99467.38;5049937;28;20456;-54
2024/01/06 10:01:11;;;;;;;0.30;0.20;;;;;;;7.95;100.00;99470.72;5043238;28;20562;-54
2024/01/06 10:03:38;;;;;;;0.30;0.20;;;;;;;7.96;100.00;99471.56;5049065;28;20490;-54
2024/01/06 10:06:04;;;;;;;0.30;0.20;;;;;;;8.03;100.00;99467.81;5052773;28;20784;-54
2024/01/06 10:08:34;;;;;;;0.30;0.20;;;;;;;7.96;100.00;99467.16;5039103;28;20451;-54
2024/01/06 10:11:01;;;;;;;0.30;0.20;;;;;;;8.07;100.00;99469.44;5052882;28;20500;-54
2024/01/06 10:13:28;;;;;;;0.30;0.20;;;;;;;8.10;100.00;99469.34;5048423;28;20551;-54
2024/01/06 10:15:55;;;;;;;0.30;0.20;;;;;;;8.11;100.00;99465.78;5043873;28;20462;-54
2024/01/06 10:18:21;;;;;;;0.30;0.20;;;;;;;8.19;100.00;99470.81;5052759;28;20454;-54
2024/01/06 10:20:49;;;;;;;0.30;0.20;;;;;;;8.25;100.00;99465.34;5039907;28;20454;-54
2024/01/06 10:23:16;;;;;;;0.30;0.20;;;;;;;8.23;100.00;99465.41;5050977;28;20582;-54
2024/01/06 10:25:42;;;;;;;0.30;0.20;;;;;;;8.35;100.00;99464.13;5052596;28;20505;-54
2024/01/06 10:28:15;;;;;;;0.30;0.20;;;;;;;8.30;100.00;99469.56;5041218;28;20454;-54
2024/01/06 10:30:41;;;;;;;0.30;0.20;;;;;;;8.33;100.00;99473.88;5039531;28;20542;-54
2024/01/06 10:33:13;;;;;;;0.30;0.20;;;;;;;8.43;99.21;99467.41;5051918;28;20532;-54
2024/01/06 10:35:40;;;;;;;0.30;0.20;;;;;;;8.44;99.20;99463.84;5052140;28;20450;-54
2024/01/06 10:38:07;;;;;;;0.30;0.20;;;;;;;8.37;99.00;99466.78;5052239;28;20482;-54
2024/01/06 10:40:33;;;;;;;0.30;0.20;;;;;;;8.36;98.71;99468.56;5052225;28;20457;-54
2024/01/06 10:43:00;;;;;;;0.30;0.20;;;;;;;8.41;98.63;99460.44;5045176;28;20582;-54
2024/01/06 10:45:29;;;;;;;0.30;0.20;;;;;;;8.43;98.82;99464.78;5048003;28;20945;-53
2024/01/06 10:47:57;;;;;;;0.30;0.20;;;;;;;8.47;98.53;99457.56;5053550;28;20985;-54
2024/01/06 10:50:24;;;;;;;0.30;0.20;;;;;;;8.51;98.19;99464.53;5039970;28;20444;-53
2024/01/06 10:52:51;;;;;;;0.30;0.20;;;;;;;8.83;97.91;99466.94;5050986;28;20509;-53
2024/01/06 10:55:20;;;;;;;0.30;0.20;;;;;;;8.93;98.33;99462.19;5044149;28;20446;-53
2024/01/06 10:57:48;;;;;;;0.30;0.20;;;;;;;9.15;97.85;99467.56;5047774;28;20545;-53
2024/01/06 11:00:15;;;;;;;0.30;0.20;;;;;;;9.44;97.35;99472.66;5048646;28;20456;-54
2024/01/06 11:02:42;;;;;;;0.30;0.20;;;;;;;9.53;95.60;99467.94;5051183;28;20491;-54
2024/01/06 11:05:10;;;;;;;0.30;0.20;;;;;;;9.53;95.47;99470.59;5048630;28;20505;-54
2024/01/06 11:07:39;;;;;;;0.30;0.20;;;;;;;9.57;95.64;99462.47;5041855;28;20446;-54
2024/01/06 11:10:11;;;;;;;0.30;0.20;;;;;;;9.75;95.99;99467.09;5051262;28;20883;-54
2024/01/06 11:12:37;;;;;;;0.30;0.20;;;;;;;9.87;95.67;99456.91;5041775;28;20479;-53
2024/01/06 11:15:04;;;;;;;0.30;0.20;;;;;;;9.74;95.37;99446.78;5048292;28;20851;-54
2024/01/06 11:17:53;;;;;;;0.30;0.20;;;;;;;9.88;95.33;99461.31;5045653;28;20450;-54
2024/01/06 11:20:26;;;;;;;0.30;0.20;;;;;;;9.69;95.39;99458.47;5055415;28;20454;-53
2024/01/06 11:22:53;;;;;;;0.30;0.20;;;;;;;9.76;95.54;99455.56;5053535;28;20489;-53
2024/01/06 11:25:22;;;;;;;0.30;0.20;;;;;;;9.76;95.37;99460.84;5043975;28;20482;-54
2024/01/06 11:27:49;;;;;;;0.30;0.20;;;;;;;9.76;95.38;99455.56;5055039;28;20450;-53
2024/01/06 11:30:21;;;;;;;0.30;0.20;;;;;;;9.87;95.15;99457.78;5055115;28;20527;-54
2024/01/06 11:32:52;;;;;;;0.30;0.20;;;;;;;10.07;94.63;99455.19;5054903;28;20463;-54
2024/01/06 11:35:20;;;;;;;0.30;0.20;;;;;;;9.85;94.45;99445.47;5054739;28;20572;-53
2024/01/06 11:37:46;;;;;;;0.30;0.20;;;;;;;10.00;94.80;99453.69;5053257;28;20486;-53